sensor_id;sensor_type;location;lat;lon;timestamp;P1;durP1;ratioP1;P2;durP2;ratioP2
71095;SDS011;58753;49.440;11.126;2023-03-01T00:01:23;21.05;;;8.20;;
71095;SDS011;58753;49.440;11.126;2023-03-01T00:03:51;18.17;;;7.77;;
71095;SDS011;58753;49.440;11.126;2023-03-01T00:06:17;17.77;;;8.40;;
71095;SDS011;58753;49.440;11.126;2023-03-01T00:08:43;18.52;;;8.50;;
71095;SDS011;58753;49.440;11.126;2023-03-01T00:13:42;21.15;;;7.80;;
71095;SDS011;58753;49.440;11.126;2023-03-01T00:16:10;17.20;;;7.75;;
71095;SDS011;58753;49.440;11.126;2023-03-01T00:18:40;16.35;;;7.38;;
71095;SDS011;58753;49.440;11.126;2023-03-01T00:21:05;22.77;;;8.23;;
71095;SDS011;58753;49.440;11.126;2023-03-01T00:23:31;17.98;;;8.30;;
71095;SDS011;58753;49.440;11.126;2023-03-01T00:25:59;21.53;;;8.23;;
71095;SDS011;58753;49.440;11.126;2023-03-01T00:28:24;19.30;;;7.63;;
71095;SDS011;58753;49.440;11.126;2023-03-01T00:30:50;19.97;;;9.00;;
71095;SDS011;58753;49.440;11.126;2023-03-01T00:33:15;18.70;;;8.23;;
71095;SDS011;58753;49.440;11.126;2023-03-01T00:35:40;21.60;;;8.57;;
71095;SDS011;58753;49.440;11.126;2023-03-01T00:38:06;23.83;;;9.47;;
71095;SDS011;58753;49.440;11.126;2023-03-01T00:40:32;18.48;;;7.57;;
71095;SDS011;58753;49.440;11.126;2023-03-01T00:42:59;18.90;;;8.35;;
71095;SDS011;58753;49.440;11.126;2023-03-01T00:45:25;22.15;;;8.73;;
71095;SDS011;58753;49.440;11.126;2023-03-01T00:47:51;25.33;;;8.60;;
71095;SDS011;58753;49.440;11.126;2023-03-01T00:50:17;19.85;;;8.15;;
71095;SDS011;58753;49.440;11.126;2023-03-01T00:52:43;19.47;;;7.67;;
71095;SDS011;58753;49.440;11.126;2023-03-01T00:55:09;23.42;;;8.05;;
71095;SDS011;58753;49.440;11.126;2023-03-01T00:57:34;18.27;;;8.17;;
71095;SDS011;58753;49.440;11.126;2023-03-01T01:00:00;16.98;;;7.93;;
71095;SDS011;58753;49.440;11.126;2023-03-01T01:02:25;15.67;;;7.03;;
71095;SDS011;58753;49.440;11.126;2023-03-01T01:04:50;21.17;;;8.10;;
71095;SDS011;58753;49.440;11.126;2023-03-01T01:07:16;20.80;;;9.50;;
71095;SDS011;58753;49.440;11.126;2023-03-01T01:09:42;17.77;;;7.93;;
71095;SDS011;58753;49.440;11.126;2023-03-01T01:12:08;18.40;;;8.10;;
71095;SDS011;58753;49.440;11.126;2023-03-01T01:14:33;19.07;;;7.67;;
71095;SDS011;58753;49.440;11.126;2023-03-01T01:16:59;21.13;;;8.02;;
71095;SDS011;58753;49.440;11.126;2023-03-01T01:19:25;20.23;;;8.43;;
71095;SDS011;58753;49.440;11.126;2023-03-01T01:21:51;18.17;;;9.32;;
71095;SDS011;58753;49.440;11.126;2023-03-01T01:24:17;26.17;;;8.40;;
71095;SDS011;58753;49.440;11.126;2023-03-01T01:26:44;22.83;;;8.83;;
71095;SDS011;58753;49.440;11.126;2023-03-01T01:29:10;25.63;;;9.05;;
71095;SDS011;58753;49.440;11.126;2023-03-01T01:31:37;20.48;;;8.45;;
71095;SDS011;58753;49.440;11.126;2023-03-01T01:34:04;18.98;;;8.70;;
71095;SDS011;58753;49.440;11.126;2023-03-01T01:36:31;20.55;;;8.40;;
71095;SDS011;58753;49.440;11.126;2023-03-01T01:38:59;21.17;;;8.40;;
71095;SDS011;58753;49.440;11.126;2023-03-01T01:41:26;18.15;;;8.13;;
71095;SDS011;58753;49.440;11.126;2023-03-01T01:46:39;19.38;;;7.82;;
71095;SDS011;58753;49.440;11.126;2023-03-01T01:49:20;22.50;;;8.57;;
71095;SDS011;58753;49.440;11.126;2023-03-01T01:51:48;18.13;;;7.30;;
71095;SDS011;58753;49.440;11.126;2023-03-01T01:54:21;19.45;;;8.38;;
71095;SDS011;58753;49.440;11.126;2023-03-01T01:56:57;19.30;;;7.40;;
71095;SDS011;58753;49.440;11.126;2023-03-01T01:59:26;20.42;;;8.25;;
71095;SDS011;58753;49.440;11.126;2023-03-01T02:01:53;16.33;;;8.23;;
71095;SDS011;58753;49.440;11.126;2023-03-01T02:04:19;21.27;;;8.98;;
71095;SDS011;58753;49.440;11.126;2023-03-01T02:06:48;17.27;;;8.38;;
71095;SDS011;58753;49.440;11.126;2023-03-01T02:09:19;19.33;;;9.38;;
71095;SDS011;58753;49.440;11.126;2023-03-01T02:11:47;21.00;;;8.75;;
71095;SDS011;58753;49.440;11.126;2023-03-01T02:14:15;20.77;;;7.77;;
71095;SDS011;58753;49.440;11.126;2023-03-01T02:16:41;20.45;;;8.00;;
71095;SDS011;58753;49.440;11.126;2023-03-01T02:19:07;20.95;;;8.75;;
71095;SDS011;58753;49.440;11.126;2023-03-01T02:24:20;20.37;;;8.63;;
71095;SDS011;58753;49.440;11.126;2023-03-01T02:27:00;18.63;;;8.05;;
71095;SDS011;58753;49.440;11.126;2023-03-01T02:29:25;17.73;;;8.02;;
71095;SDS011;58753;49.440;11.126;2023-03-01T02:31:53;17.67;;;7.37;;
71095;SDS011;58753;49.440;11.126;2023-03-01T02:34:22;22.25;;;9.32;;
71095;SDS011;58753;49.440;11.126;2023-03-01T02:39:51;22.77;;;8.30;;
71095;SDS011;58753;49.440;11.126;2023-03-01T02:42:23;21.23;;;8.13;;
71095;SDS011;58753;49.440;11.126;2023-03-01T02:44:53;21.57;;;8.97;;
71095;SDS011;58753;49.440;11.126;2023-03-01T02:47:19;21.77;;;7.85;;
71095;SDS011;58753;49.440;11.126;2023-03-01T02:49:44;19.53;;;8.23;;
71095;SDS011;58753;49.440;11.126;2023-03-01T02:57:29;22.95;;;8.43;;
71095;SDS011;58753;49.440;11.126;2023-03-01T02:59:56;19.27;;;9.40;;
71095;SDS011;58753;49.440;11.126;2023-03-01T03:02:25;18.10;;;8.07;;
71095;SDS011;58753;49.440;11.126;2023-03-01T03:05:09;21.05;;;7.82;;
71095;SDS011;58753;49.440;11.126;2023-03-01T03:07:41;18.77;;;7.88;;
71095;SDS011;58753;49.440;11.126;2023-03-01T03:10:10;20.90;;;8.48;;
71095;SDS011;58753;49.440;11.126;2023-03-01T03:12:50;19.13;;;7.17;;
71095;SDS011;58753;49.440;11.126;2023-03-01T03:15:21;20.67;;;7.68;;
71095;SDS011;58753;49.440;11.126;2023-03-01T03:17:47;20.33;;;8.35;;
71095;SDS011;58753;49.440;11.126;2023-03-01T03:20:15;20.50;;;7.85;;
71095;SDS011;58753;49.440;11.126;2023-03-01T03:22:44;19.95;;;8.05;;
71095;SDS011;58753;49.440;11.126;2023-03-01T03:25:11;18.87;;;8.80;;
71095;SDS011;58753;49.440;11.126;2023-03-01T03:27:37;18.88;;;8.63;;
71095;SDS011;58753;49.440;11.126;2023-03-01T03:30:04;20.23;;;8.77;;
71095;SDS011;58753;49.440;11.126;2023-03-01T03:32:34;26.17;;;9.48;;
71095;SDS011;58753;49.440;11.126;2023-03-01T03:35:00;22.23;;;9.00;;
71095;SDS011;58753;49.440;11.126;2023-03-01T03:37:26;17.48;;;7.95;;
71095;SDS011;58753;49.440;11.126;2023-03-01T03:40:14;16.35;;;7.60;;
71095;SDS011;58753;49.440;11.126;2023-03-01T03:42:40;16.00;;;7.63;;
71095;SDS011;58753;49.440;11.126;2023-03-01T03:45:06;19.08;;;8.50;;
71095;SDS011;58753;49.440;11.126;2023-03-01T03:47:32;20.05;;;8.55;;
71095;SDS011;58753;49.440;11.126;2023-03-01T03:49:57;16.63;;;7.90;;
71095;SDS011;58753;49.440;11.126;2023-03-01T03:52:23;21.57;;;8.10;;
71095;SDS011;58753;49.440;11.126;2023-03-01T03:54:48;19.42;;;7.55;;
71095;SDS011;58753;49.440;11.126;2023-03-01T03:57:13;24.30;;;7.97;;
71095;SDS011;58753;49.440;11.126;2023-03-01T03:59:39;20.30;;;8.07;;
71095;SDS011;58753;49.440;11.126;2023-03-01T04:02:04;22.53;;;8.80;;
71095;SDS011;58753;49.440;11.126;2023-03-01T04:04:30;20.30;;;8.02;;
71095;SDS011;58753;49.440;11.126;2023-03-01T04:06:56;19.50;;;8.10;;
71095;SDS011;58753;49.440;11.126;2023-03-01T04:09:21;20.87;;;8.10;;
71095;SDS011;58753;49.440;11.126;2023-03-01T04:11:46;20.27;;;9.57;;
71095;SDS011;58753;49.440;11.126;2023-03-01T04:14:12;16.70;;;8.60;;
71095;SDS011;58753;49.440;11.126;2023-03-01T04:16:37;22.77;;;8.67;;
71095;SDS011;58753;49.440;11.126;2023-03-01T04:19:02;19.47;;;8.63;;
71095;SDS011;58753;49.440;11.126;2023-03-01T04:21:28;23.38;;;8.80;;
71095;SDS011;58753;49.440;11.126;2023-03-01T04:23:53;20.37;;;8.00;;
71095;SDS011;58753;49.440;11.126;2023-03-01T04:26:19;20.03;;;8.20;;
71095;SDS011;58753;49.440;11.126;2023-03-01T04:28:45;20.45;;;8.15;;
71095;SDS011;58753;49.440;11.126;2023-03-01T04:31:12;25.20;;;9.15;;
71095;SDS011;58753;49.440;11.126;2023-03-01T04:33:41;16.07;;;7.63;;
71095;SDS011;58753;49.440;11.126;2023-03-01T04:36:08;19.85;;;8.65;;
71095;SDS011;58753;49.440;11.126;2023-03-01T04:38:36;20.30;;;7.78;;
71095;SDS011;58753;49.440;11.126;2023-03-01T04:41:03;21.65;;;8.35;;
71095;SDS011;58753;49.440;11.126;2023-03-01T04:43:33;19.80;;;8.40;;
71095;SDS011;58753;49.440;11.126;2023-03-01T04:46:06;22.33;;;7.20;;
71095;SDS011;58753;49.440;11.126;2023-03-01T04:48:34;16.05;;;8.05;;
71095;SDS011;58753;49.440;11.126;2023-03-01T04:51:01;19.80;;;8.32;;
71095;SDS011;58753;49.440;11.126;2023-03-01T04:53:27;18.38;;;7.70;;
71095;SDS011;58753;49.440;11.126;2023-03-01T04:55:54;20.17;;;8.48;;
71095;SDS011;58753;49.440;11.126;2023-03-01T04:58:21;22.43;;;8.30;;
71095;SDS011;58753;49.440;11.126;2023-03-01T05:00:47;21.05;;;8.32;;
71095;SDS011;58753;49.440;11.126;2023-03-01T05:03:13;21.40;;;8.37;;
71095;SDS011;58753;49.440;11.126;2023-03-01T05:05:43;21.30;;;7.85;;
71095;SDS011;58753;49.440;11.126;2023-03-01T05:08:09;18.73;;;7.90;;
71095;SDS011;58753;49.440;11.126;2023-03-01T05:10:43;20.27;;;7.78;;
71095;SDS011;58753;49.440;11.126;2023-03-01T05:13:10;18.20;;;7.70;;
71095;SDS011;58753;49.440;11.126;2023-03-01T05:15:38;16.07;;;7.53;;
71095;SDS011;58753;49.440;11.126;2023-03-01T05:18:04;21.98;;;8.20;;
71095;SDS011;58753;49.440;11.126;2023-03-01T05:20:36;20.75;;;9.63;;
71095;SDS011;58753;49.440;11.126;2023-03-01T05:23:02;20.70;;;9.27;;
71095;SDS011;58753;49.440;11.126;2023-03-01T05:25:30;15.50;;;8.00;;
71095;SDS011;58753;49.440;11.126;2023-03-01T05:27:58;20.17;;;8.40;;
71095;SDS011;58753;49.440;11.126;2023-03-01T05:30:29;18.55;;;8.00;;
71095;SDS011;58753;49.440;11.126;2023-03-01T05:32:58;15.80;;;7.43;;
71095;SDS011;58753;49.440;11.126;2023-03-01T05:35:23;18.57;;;7.63;;
71095;SDS011;58753;49.440;11.126;2023-03-01T05:37:49;20.77;;;9.23;;
71095;SDS011;58753;49.440;11.126;2023-03-01T05:40:16;25.67;;;9.30;;
71095;SDS011;58753;49.440;11.126;2023-03-01T05:42:44;19.83;;;8.35;;
71095;SDS011;58753;49.440;11.126;2023-03-01T05:45:11;18.20;;;8.38;;
71095;SDS011;58753;49.440;11.126;2023-03-01T05:47:38;23.05;;;9.75;;
71095;SDS011;58753;49.440;11.126;2023-03-01T05:50:17;22.17;;;9.90;;
71095;SDS011;58753;49.440;11.126;2023-03-01T05:52:50;23.40;;;8.57;;
71095;SDS011;58753;49.440;11.126;2023-03-01T05:55:18;23.45;;;8.13;;
71095;SDS011;58753;49.440;11.126;2023-03-01T05:57:44;20.50;;;7.80;;
71095;SDS011;58753;49.440;11.126;2023-03-01T06:00:10;24.42;;;9.48;;
71095;SDS011;58753;49.440;11.126;2023-03-01T06:02:37;20.03;;;9.33;;
71095;SDS011;58753;49.440;11.126;2023-03-01T06:05:04;21.45;;;9.82;;
71095;SDS011;58753;49.440;11.126;2023-03-01T06:07:31;17.77;;;8.00;;
71095;SDS011;58753;49.440;11.126;2023-03-01T06:09:56;21.60;;;8.35;;
71095;SDS011;58753;49.440;11.126;2023-03-01T06:12:22;19.70;;;8.37;;
71095;SDS011;58753;49.440;11.126;2023-03-01T06:14:47;22.10;;;8.63;;
71095;SDS011;58753;49.440;11.126;2023-03-01T06:17:13;22.80;;;9.60;;
71095;SDS011;58753;49.440;11.126;2023-03-01T06:19:38;23.03;;;8.53;;
71095;SDS011;58753;49.440;11.126;2023-03-01T06:22:04;21.93;;;8.67;;
71095;SDS011;58753;49.440;11.126;2023-03-01T06:24:29;23.80;;;8.43;;
71095;SDS011;58753;49.440;11.126;2023-03-01T06:26:54;24.47;;;10.20;;
71095;SDS011;58753;49.440;11.126;2023-03-01T06:29:20;29.80;;;11.53;;
71095;SDS011;58753;49.440;11.126;2023-03-01T06:31:47;31.73;;;13.02;;
71095;SDS011;58753;49.440;11.126;2023-03-01T06:34:13;30.55;;;10.50;;
71095;SDS011;58753;49.440;11.126;2023-03-01T06:36:39;19.35;;;9.52;;
71095;SDS011;58753;49.440;11.126;2023-03-01T06:39:04;21.57;;;9.60;;
71095;SDS011;58753;49.440;11.126;2023-03-01T06:41:30;22.13;;;9.83;;
71095;SDS011;58753;49.440;11.126;2023-03-01T06:43:56;18.02;;;9.30;;
71095;SDS011;58753;49.440;11.126;2023-03-01T06:46:21;20.47;;;8.33;;
71095;SDS011;58753;49.440;11.126;2023-03-01T06:48:47;22.52;;;9.48;;
71095;SDS011;58753;49.440;11.126;2023-03-01T06:51:12;23.90;;;9.13;;
71095;SDS011;58753;49.440;11.126;2023-03-01T06:53:37;27.60;;;10.63;;
71095;SDS011;58753;49.440;11.126;2023-03-01T06:56:03;22.47;;;9.43;;
71095;SDS011;58753;49.440;11.126;2023-03-01T06:58:29;21.23;;;9.17;;
71095;SDS011;58753;49.440;11.126;2023-03-01T07:00:54;25.50;;;10.77;;
71095;SDS011;58753;49.440;11.126;2023-03-01T07:03:20;22.13;;;9.57;;
71095;SDS011;58753;49.440;11.126;2023-03-01T07:05:45;27.17;;;10.50;;
71095;SDS011;58753;49.440;11.126;2023-03-01T07:08:14;22.15;;;9.70;;
71095;SDS011;58753;49.440;11.126;2023-03-01T07:10:39;25.97;;;10.10;;
71095;SDS011;58753;49.440;11.126;2023-03-01T07:13:04;21.97;;;8.73;;
71095;SDS011;58753;49.440;11.126;2023-03-01T07:15:31;22.73;;;9.10;;
71095;SDS011;58753;49.440;11.126;2023-03-01T07:17:57;20.80;;;9.57;;
71095;SDS011;58753;49.440;11.126;2023-03-01T07:20:23;22.63;;;10.20;;
71095;SDS011;58753;49.440;11.126;2023-03-01T07:22:50;26.38;;;10.07;;
71095;SDS011;58753;49.440;11.126;2023-03-01T07:25:16;25.08;;;10.27;;
71095;SDS011;58753;49.440;11.126;2023-03-01T07:27:42;20.50;;;9.47;;
71095;SDS011;58753;49.440;11.126;2023-03-01T07:30:08;23.40;;;9.63;;
71095;SDS011;58753;49.440;11.126;2023-03-01T07:32:33;23.88;;;10.18;;
71095;SDS011;58753;49.440;11.126;2023-03-01T07:34:59;25.00;;;10.57;;
71095;SDS011;58753;49.440;11.126;2023-03-01T07:37:24;21.23;;;10.07;;
71095;SDS011;58753;49.440;11.126;2023-03-01T07:39:50;25.90;;;9.50;;
71095;SDS011;58753;49.440;11.126;2023-03-01T07:42:15;20.70;;;10.13;;
71095;SDS011;58753;49.440;11.126;2023-03-01T07:44:40;19.13;;;9.67;;
71095;SDS011;58753;49.440;11.126;2023-03-01T07:47:06;18.57;;;8.60;;
71095;SDS011;58753;49.440;11.126;2023-03-01T07:49:31;23.63;;;9.23;;
71095;SDS011;58753;49.440;11.126;2023-03-01T07:51:57;24.33;;;9.50;;
71095;SDS011;58753;49.440;11.126;2023-03-01T07:54:22;22.27;;;9.67;;
71095;SDS011;58753;49.440;11.126;2023-03-01T07:56:47;21.67;;;9.57;;
71095;SDS011;58753;49.440;11.126;2023-03-01T07:59:13;21.52;;;9.80;;
71095;SDS011;58753;49.440;11.126;2023-03-01T08:01:38;23.53;;;9.93;;
71095;SDS011;58753;49.440;11.126;2023-03-01T08:04:04;21.23;;;9.93;;
71095;SDS011;58753;49.440;11.126;2023-03-01T08:06:33;20.25;;;9.20;;
71095;SDS011;58753;49.440;11.126;2023-03-01T08:08:58;25.00;;;11.00;;
71095;SDS011;58753;49.440;11.126;2023-03-01T08:11:24;23.57;;;8.73;;
71095;SDS011;58753;49.440;11.126;2023-03-01T08:13:49;22.60;;;10.20;;
71095;SDS011;58753;49.440;11.126;2023-03-01T08:16:15;20.20;;;9.97;;
71095;SDS011;58753;49.440;11.126;2023-03-01T08:18:41;23.75;;;10.43;;
71095;SDS011;58753;49.440;11.126;2023-03-01T08:21:08;21.30;;;9.95;;
71095;SDS011;58753;49.440;11.126;2023-03-01T08:23:35;25.83;;;10.07;;
71095;SDS011;58753;49.440;11.126;2023-03-01T08:28:29;22.10;;;9.63;;
71095;SDS011;58753;49.440;11.126;2023-03-01T08:30:55;24.83;;;9.87;;
71095;SDS011;58753;49.440;11.126;2023-03-01T08:33:20;24.10;;;9.60;;
71095;SDS011;58753;49.440;11.126;2023-03-01T08:35:45;25.48;;;10.45;;
71095;SDS011;58753;49.440;11.126;2023-03-01T08:38:11;23.43;;;10.27;;
71095;SDS011;58753;49.440;11.126;2023-03-01T08:43:34;20.83;;;9.48;;
71095;SDS011;58753;49.440;11.126;2023-03-01T08:45:59;22.53;;;9.30;;
71095;SDS011;58753;49.440;11.126;2023-03-01T08:48:25;21.27;;;9.60;;
71095;SDS011;58753;49.440;11.126;2023-03-01T08:50:53;18.35;;;8.80;;
71095;SDS011;58753;49.440;11.126;2023-03-01T08:53:18;18.73;;;9.20;;
71095;SDS011;58753;49.440;11.126;2023-03-01T08:55:43;25.17;;;9.77;;
71095;SDS011;58753;49.440;11.126;2023-03-01T08:58:09;20.50;;;10.25;;
71095;SDS011;58753;49.440;11.126;2023-03-01T09:00:34;21.83;;;10.00;;
71095;SDS011;58753;49.440;11.126;2023-03-01T09:03:00;22.75;;;10.70;;
71095;SDS011;58753;49.440;11.126;2023-03-01T09:05:26;22.40;;;9.47;;
71095;SDS011;58753;49.440;11.126;2023-03-01T09:07:52;20.92;;;10.13;;
71095;SDS011;58753;49.440;11.126;2023-03-01T09:10:17;23.57;;;9.93;;
71095;SDS011;58753;49.440;11.126;2023-03-01T09:12:43;20.50;;;9.33;;
71095;SDS011;58753;49.440;11.126;2023-03-01T09:15:08;20.30;;;9.65;;
71095;SDS011;58753;49.440;11.126;2023-03-01T09:17:34;18.60;;;7.53;;
71095;SDS011;58753;49.440;11.126;2023-03-01T09:20:00;21.92;;;9.77;;
71095;SDS011;58753;49.440;11.126;2023-03-01T09:22:25;18.27;;;8.50;;
71095;SDS011;58753;49.440;11.126;2023-03-01T09:24:51;16.83;;;8.43;;
71095;SDS011;58753;49.440;11.126;2023-03-01T09:27:17;20.55;;;9.10;;
71095;SDS011;58753;49.440;11.126;2023-03-01T09:29:44;24.57;;;9.93;;
71095;SDS011;58753;49.440;11.126;2023-03-01T09:32:10;19.00;;;8.32;;
71095;SDS011;58753;49.440;11.126;2023-03-01T09:34:35;20.83;;;9.37;;
71095;SDS011;58753;49.440;11.126;2023-03-01T09:37:21;17.50;;;8.00;;
71095;SDS011;58753;49.440;11.126;2023-03-01T09:39:46;22.00;;;10.40;;
71095;SDS011;58753;49.440;11.126;2023-03-01T09:42:12;18.23;;;9.07;;
71095;SDS011;58753;49.440;11.126;2023-03-01T09:44:40;19.43;;;8.50;;
71095;SDS011;58753;49.440;11.126;2023-03-01T09:47:16;17.02;;;8.20;;
71095;SDS011;58753;49.440;11.126;2023-03-01T09:49:45;20.70;;;10.15;;
71095;SDS011;58753;49.440;11.126;2023-03-01T09:55:04;23.80;;;10.23;;
71095;SDS011;58753;49.440;11.126;2023-03-01T09:57:43;18.63;;;9.03;;
71095;SDS011;58753;49.440;11.126;2023-03-01T10:06:20;17.33;;;8.30;;
71095;SDS011;58753;49.440;11.126;2023-03-01T10:08:50;21.00;;;8.98;;
71095;SDS011;58753;49.440;11.126;2023-03-01T10:11:30;18.87;;;9.70;;
71095;SDS011;58753;49.440;11.126;2023-03-01T10:16:40;22.50;;;10.43;;
71095;SDS011;58753;49.440;11.126;2023-03-01T10:19:09;21.08;;;9.75;;
71095;SDS011;58753;49.440;11.126;2023-03-01T10:21:41;21.88;;;11.07;;
71095;SDS011;58753;49.440;11.126;2023-03-01T10:24:16;19.67;;;10.63;;
71095;SDS011;58753;49.440;11.126;2023-03-01T10:26:56;20.85;;;9.35;;
71095;SDS011;58753;49.440;11.126;2023-03-01T10:29:25;24.65;;;11.55;;
71095;SDS011;58753;49.440;11.126;2023-03-01T10:31:56;21.02;;;9.38;;
71095;SDS011;58753;49.440;11.126;2023-03-01T10:34:32;20.50;;;9.87;;
71095;SDS011;58753;49.440;11.126;2023-03-01T10:37:13;17.77;;;9.18;;
71095;SDS011;58753;49.440;11.126;2023-03-01T10:40:03;20.17;;;8.70;;
71095;SDS011;58753;49.440;11.126;2023-03-01T10:42:38;18.38;;;9.40;;
71095;SDS011;58753;49.440;11.126;2023-03-01T10:45:16;21.47;;;9.47;;
71095;SDS011;58753;49.440;11.126;2023-03-01T10:48:05;18.60;;;8.88;;
71095;SDS011;58753;49.440;11.126;2023-03-01T10:50:34;18.83;;;8.77;;
71095;SDS011;58753;49.440;11.126;2023-03-01T10:53:04;18.17;;;9.05;;
71095;SDS011;58753;49.440;11.126;2023-03-01T10:55:39;19.45;;;9.55;;
71095;SDS011;58753;49.440;11.126;2023-03-01T11:00:47;19.75;;;8.10;;
71095;SDS011;58753;49.440;11.126;2023-03-01T11:03:19;23.52;;;8.90;;
71095;SDS011;58753;49.440;11.126;2023-03-01T11:06:01;16.38;;;8.10;;
71095;SDS011;58753;49.440;11.126;2023-03-01T11:08:29;19.45;;;8.82;;
71095;SDS011;58753;49.440;11.126;2023-03-01T11:13:36;19.92;;;9.20;;
71095;SDS011;58753;49.440;11.126;2023-03-01T11:16:28;22.60;;;9.50;;
71095;SDS011;58753;49.440;11.126;2023-03-01T11:19:20;21.70;;;9.07;;
71095;SDS011;58753;49.440;11.126;2023-03-01T11:21:57;18.45;;;9.35;;
71095;SDS011;58753;49.440;11.126;2023-03-01T11:24:27;19.40;;;8.80;;
71095;SDS011;58753;49.440;11.126;2023-03-01T11:27:14;16.55;;;8.60;;
71095;SDS011;58753;49.440;11.126;2023-03-01T11:29:44;19.38;;;9.52;;
71095;SDS011;58753;49.440;11.126;2023-03-01T11:32:16;17.75;;;9.18;;
71095;SDS011;58753;49.440;11.126;2023-03-01T11:40:10;18.40;;;8.98;;
71095;SDS011;58753;49.440;11.126;2023-03-01T11:42:52;17.63;;;9.20;;
71095;SDS011;58753;49.440;11.126;2023-03-01T11:45:31;22.95;;;10.40;;
71095;SDS011;58753;49.440;11.126;2023-03-01T11:50:56;16.13;;;9.83;;
71095;SDS011;58753;49.440;11.126;2023-03-01T11:56:20;18.30;;;10.27;;
71095;SDS011;58753;49.440;11.126;2023-03-01T12:04:22;16.67;;;9.90;;
71095;SDS011;58753;49.440;11.126;2023-03-01T12:07:07;16.73;;;10.90;;
71095;SDS011;58753;49.440;11.126;2023-03-01T12:10:11;15.98;;;9.40;;
71095;SDS011;58753;49.440;11.126;2023-03-01T12:12:45;15.63;;;8.93;;
71095;SDS011;58753;49.440;11.126;2023-03-01T12:15:21;16.10;;;8.90;;
71095;SDS011;58753;49.440;11.126;2023-03-01T12:20:58;15.60;;;9.30;;
71095;SDS011;58753;49.440;11.126;2023-03-01T12:32:15;15.85;;;9.57;;
71095;SDS011;58753;49.440;11.126;2023-03-01T12:51:39;16.05;;;9.07;;
71095;SDS011;58753;49.440;11.126;2023-03-01T12:54:26;16.52;;;10.05;;
71095;SDS011;58753;49.440;11.126;2023-03-01T12:57:02;15.70;;;10.05;;
71095;SDS011;58753;49.440;11.126;2023-03-01T13:10:43;15.85;;;9.57;;
71095;SDS011;58753;49.440;11.126;2023-03-01T13:13:26;14.88;;;9.27;;
71095;SDS011;58753;49.440;11.126;2023-03-01T13:15:52;15.55;;;8.23;;
71095;SDS011;58753;49.440;11.126;2023-03-01T13:33:49;14.90;;;8.10;;
71095;SDS011;58753;49.440;11.126;2023-03-01T13:44:46;16.95;;;8.63;;
71095;SDS011;58753;49.440;11.126;2023-03-01T13:49:48;14.87;;;7.50;;
71095;SDS011;58753;49.440;11.126;2023-03-01T13:55:32;14.23;;;7.30;;
71095;SDS011;58753;49.440;11.126;2023-03-01T14:03:22;14.80;;;7.30;;
71095;SDS011;58753;49.440;11.126;2023-03-01T14:06:02;15.45;;;7.25;;
71095;SDS011;58753;49.440;11.126;2023-03-01T14:08:32;14.40;;;7.47;;
71095;SDS011;58753;49.440;11.126;2023-03-01T14:13:48;12.05;;;7.47;;
71095;SDS011;58753;49.440;11.126;2023-03-01T14:19:15;13.95;;;8.25;;
71095;SDS011;58753;49.440;11.126;2023-03-01T14:21:44;14.77;;;8.00;;
71095;SDS011;58753;49.440;11.126;2023-03-01T14:24:21;13.20;;;7.80;;
71095;SDS011;58753;49.440;11.126;2023-03-01T14:26:48;16.63;;;8.48;;
71095;SDS011;58753;49.440;11.126;2023-03-01T14:29:25;15.47;;;7.67;;
71095;SDS011;58753;49.440;11.126;2023-03-01T14:32:08;14.25;;;8.13;;
71095;SDS011;58753;49.440;11.126;2023-03-01T14:34:45;12.55;;;7.78;;
71095;SDS011;58753;49.440;11.126;2023-03-01T14:37:18;13.95;;;7.63;;
71095;SDS011;58753;49.440;11.126;2023-03-01T14:39:43;16.70;;;9.27;;
71095;SDS011;58753;49.440;11.126;2023-03-01T14:42:09;12.73;;;8.07;;
71095;SDS011;58753;49.440;11.126;2023-03-01T14:44:34;16.57;;;8.57;;
71095;SDS011;58753;49.440;11.126;2023-03-01T14:47:02;15.25;;;8.48;;
71095;SDS011;58753;49.440;11.126;2023-03-01T14:49:29;16.05;;;8.40;;
71095;SDS011;58753;49.440;11.126;2023-03-01T14:52:03;20.10;;;8.90;;
71095;SDS011;58753;49.440;11.126;2023-03-01T14:57:21;13.65;;;8.40;;
71095;SDS011;58753;49.440;11.126;2023-03-01T14:59:51;14.65;;;8.40;;
71095;SDS011;58753;49.440;11.126;2023-03-01T15:02:23;12.95;;;6.60;;
71095;SDS011;58753;49.440;11.126;2023-03-01T15:04:51;14.38;;;8.02;;
71095;SDS011;58753;49.440;11.126;2023-03-01T15:07:21;14.33;;;7.13;;
71095;SDS011;58753;49.440;11.126;2023-03-01T15:09:51;12.68;;;7.78;;
71095;SDS011;58753;49.440;11.126;2023-03-01T15:12:37;16.80;;;8.00;;
71095;SDS011;58753;49.440;11.126;2023-03-01T15:15:46;16.03;;;7.67;;
71095;SDS011;58753;49.440;11.126;2023-03-01T15:17:55;16.63;;;6.50;;
71095;SDS011;58753;49.440;11.126;2023-03-01T15:20:24;12.35;;;6.90;;
71095;SDS011;58753;49.440;11.126;2023-03-01T15:22:51;11.88;;;6.88;;
71095;SDS011;58753;49.440;11.126;2023-03-01T15:25:18;13.02;;;7.03;;
71095;SDS011;58753;49.440;11.126;2023-03-01T15:27:47;14.27;;;7.20;;
71095;SDS011;58753;49.440;11.126;2023-03-01T15:30:21;14.63;;;6.78;;
71095;SDS011;58753;49.440;11.126;2023-03-01T15:33:15;13.57;;;8.05;;
71095;SDS011;58753;49.440;11.126;2023-03-01T15:35:52;14.18;;;7.35;;
71095;SDS011;58753;49.440;11.126;2023-03-01T15:44:14;15.52;;;6.82;;
71095;SDS011;58753;49.440;11.126;2023-03-01T15:46:49;13.57;;;7.10;;
71095;SDS011;58753;49.440;11.126;2023-03-01T15:58:00;12.88;;;6.57;;
71095;SDS011;58753;49.440;11.126;2023-03-01T16:00:27;14.13;;;6.20;;
71095;SDS011;58753;49.440;11.126;2023-03-01T16:02:54;12.60;;;6.95;;
71095;SDS011;58753;49.440;11.126;2023-03-01T16:05:30;17.33;;;7.43;;
71095;SDS011;58753;49.440;11.126;2023-03-01T16:07:57;16.35;;;7.90;;
71095;SDS011;58753;49.440;11.126;2023-03-01T16:10:23;18.27;;;8.10;;
71095;SDS011;58753;49.440;11.126;2023-03-01T16:12:50;16.40;;;7.75;;
71095;SDS011;58753;49.440;11.126;2023-03-01T16:15:21;14.50;;;7.50;;
71095;SDS011;58753;49.440;11.126;2023-03-01T16:17:50;14.75;;;7.43;;
71095;SDS011;58753;49.440;11.126;2023-03-01T16:20:17;14.57;;;6.73;;
71095;SDS011;58753;49.440;11.126;2023-03-01T16:22:43;15.10;;;7.30;;
71095;SDS011;58753;49.440;11.126;2023-03-01T16:25:13;16.42;;;7.82;;
71095;SDS011;58753;49.440;11.126;2023-03-01T16:27:47;16.23;;;7.75;;
71095;SDS011;58753;49.440;11.126;2023-03-01T16:30:15;16.33;;;8.02;;
71095;SDS011;58753;49.440;11.126;2023-03-01T16:32:44;14.47;;;6.60;;
71095;SDS011;58753;49.440;11.126;2023-03-01T16:35:11;16.15;;;7.28;;
71095;SDS011;58753;49.440;11.126;2023-03-01T16:37:39;17.13;;;8.13;;
71095;SDS011;58753;49.440;11.126;2023-03-01T16:40:05;19.10;;;7.10;;
71095;SDS011;58753;49.440;11.126;2023-03-01T16:42:36;14.63;;;7.53;;
71095;SDS011;58753;49.440;11.126;2023-03-01T16:45:02;17.17;;;7.87;;
71095;SDS011;58753;49.440;11.126;2023-03-01T16:47:28;17.35;;;8.60;;
71095;SDS011;58753;49.440;11.126;2023-03-01T16:49:54;16.43;;;8.00;;
71095;SDS011;58753;49.440;11.126;2023-03-01T16:52:20;19.13;;;7.63;;
71095;SDS011;58753;49.440;11.126;2023-03-01T16:54:46;18.77;;;8.20;;
71095;SDS011;58753;49.440;11.126;2023-03-01T16:57:12;20.88;;;8.32;;
71095;SDS011;58753;49.440;11.126;2023-03-01T16:59:37;14.60;;;7.13;;
71095;SDS011;58753;49.440;11.126;2023-03-01T17:02:03;16.33;;;7.85;;
71095;SDS011;58753;49.440;11.126;2023-03-01T17:04:31;18.07;;;8.20;;